createdAt,value
2023-04-10T00:01:05.411Z,19.50
2023-04-10T00:05:30.395Z,22.50
2023-04-10T00:10:10.305Z,21.80
2023-04-10T00:14:30.628Z,24.90
2023-04-10T00:18:39.350Z,24.50
2023-04-10T00:23:23.670Z,23.10
2023-04-10T00:28:07.673Z,25.40
2023-04-10T00:32:33.474Z,19.10
2023-04-10T00:36:43.855Z,24.50
2023-04-10T00:41:05.609Z,31.60
2023-04-10T00:45:33.885Z,23.60
2023-04-10T00:50:03.981Z,31.00
2023-04-10T00:54:28.651Z,28.70
2023-04-10T00:58:32.968Z,31.80
2023-04-10T01:02:57.991Z,27.20
2023-04-10T01:07:51.237Z,18.40
2023-04-10T01:12:00.158Z,26.60
2023-04-10T01:16:59.793Z,20.50
2023-04-10T01:21:44.010Z,17.00
2023-04-10T01:26:21.427Z,17.10
2023-04-10T01:30:53.400Z,23.40
2023-04-10T01:35:28.026Z,21.80
2023-04-10T01:39:14.673Z,29.10
2023-04-10T01:43:20.862Z,26.60
2023-04-10T01:47:33.092Z,27.50
2023-04-10T01:51:58.534Z,23.00
2023-04-10T01:56:12.073Z,15.10
2023-04-10T02:00:16.866Z,22.90
2023-04-10T02:04:25.721Z,17.80
2023-04-10T02:08:56.577Z,18.40
2023-04-10T02:13:12.414Z,29.10
2023-04-10T02:17:36.882Z,20.90
2023-04-10T02:22:08.394Z,27.00
2023-04-10T02:26:39.973Z,19.60
2023-04-10T02:30:56.055Z,29.30
2023-04-10T02:35:00.171Z,23.30
2023-04-10T02:39:47.428Z,28.00
2023-04-10T02:44:08.274Z,20.30
2023-04-10T02:48:20.943Z,21.20
2023-04-10T03:00:48.767Z,27.90
2023-04-10T03:05:00.979Z,17.60
2023-04-10T03:09:29.267Z,11.60
2023-04-10T03:13:49.497Z,23.00
2023-04-10T03:18:21.386Z,20.90
2023-04-10T03:22:33.245Z,10.30
2023-04-10T03:26:46.538Z,21.50
2023-04-10T03:31:33.434Z,25.30
2023-04-10T03:36:17.749Z,24.80
2023-04-10T03:40:50.477Z,14.70
2023-04-10T03:45:31.129Z,14.50
2023-04-10T03:50:14.976Z,15.80
2023-04-10T03:54:38.906Z,26.60
2023-04-10T03:58:52.896Z,20.90
2023-04-10T04:03:19.087Z,17.50
2023-04-10T04:07:43.521Z,17.40
2023-04-10T04:12:23.631Z,23.60
2023-04-10T04:16:47.940Z,19.90
2023-04-10T04:21:08.162Z,14.20
2023-04-10T04:25:39.839Z,25.60
2023-04-10T04:29:45.918Z,17.40
2023-04-10T04:33:54.783Z,15.60
2023-04-10T04:37:38.138Z,24.20
2023-04-10T04:41:44.666Z,16.10
2023-04-10T04:45:57.147Z,22.70
2023-04-10T04:50:30.052Z,17.10
2023-04-10T04:54:58.987Z,14.40
2023-04-10T04:59:07.288Z,19.60
2023-04-10T05:03:31.737Z,9.90
2023-04-10T05:07:57.425Z,15.70
2023-04-10T05:12:03.624Z,20.70
2023-04-10T05:16:13.593Z,17.20
2023-04-10T05:20:46.218Z,12.20
2023-04-10T05:25:18.468Z,17.00
2023-04-10T05:29:38.702Z,11.30
2023-04-10T05:34:00.038Z,17.30
2023-04-10T05:38:12.604Z,12.20
2023-04-10T05:42:29.748Z,10.10
2023-04-10T05:46:51.279Z,15.40
2023-04-10T05:51:31.644Z,14.70
2023-04-10T05:55:56.006Z,19.30
2023-04-10T06:00:18.501Z,15.00
2023-04-10T06:04:42.797Z,12.70
2023-04-10T06:08:56.865Z,15.10
2023-04-10T06:13:05.310Z,11.40
2023-04-10T06:17:28.821Z,10.80
2023-04-10T06:22:09.153Z,13.60
2023-04-10T06:26:24.868Z,16.00
2023-04-10T06:30:49.802Z,14.50
2023-04-10T06:35:07.136Z,20.90
2023-04-10T06:39:31.075Z,16.10
2023-04-10T06:43:39.530Z,17.60
2023-04-10T06:47:44.525Z,16.40
2023-04-10T06:52:13.399Z,17.40
2023-04-10T06:56:29.428Z,11.60
2023-04-10T07:01:01.513Z,14.80
2023-04-10T07:05:27.179Z,12.00
2023-04-10T07:09:37.125Z,25.50
2023-04-10T07:14:01.422Z,21.10
2023-04-10T07:18:22.301Z,19.20
2023-04-10T07:22:28.439Z,17.60
2023-04-10T07:26:51.659Z,18.20
2023-04-10T07:31:15.774Z,21.00
2023-04-10T07:35:24.438Z,15.40
2023-04-10T07:39:22.321Z,16.50
2023-04-10T07:44:06.811Z,18.00
2023-04-10T07:48:49.865Z,17.60
2023-04-10T07:53:14.876Z,18.80
2023-04-10T07:58:00.364Z,20.00
2023-04-10T08:02:33.732Z,15.40
2023-04-10T08:06:38.398Z,11.10
2023-04-10T08:11:06.497Z,15.10
2023-04-10T08:15:27.379Z,14.90
2023-04-10T08:19:59.043Z,23.80
2023-04-10T08:24:33.735Z,23.20
2023-04-10T08:29:18.020Z,17.30
2023-04-10T08:33:30.365Z,21.60
2023-04-10T08:37:43.146Z,17.20
2023-04-10T08:42:14.328Z,18.60
2023-04-10T08:46:58.480Z,21.70
2023-04-10T08:51:26.335Z,17.10
2023-04-10T08:55:56.048Z,18.00
2023-04-10T09:00:28.172Z,16.90
2023-04-10T09:04:41.810Z,17.60
2023-04-10T09:12:55.147Z,17.00
2023-04-10T09:17:19.473Z,13.50
2023-04-10T09:21:35.412Z,17.00
2023-04-10T09:25:21.173Z,22.70
2023-04-10T09:29:57.829Z,23.40
2023-04-10T09:34:03.271Z,13.40
2023-04-10T09:37:59.687Z,18.10
2023-04-10T09:42:33.255Z,16.00
2023-04-10T09:47:04.407Z,23.10
2023-04-10T09:51:36.740Z,22.50
2023-04-10T09:55:49.431Z,20.00
2023-04-10T10:00:23.032Z,17.60
2023-04-10T10:05:02.601Z,17.70
2023-04-10T10:09:10.711Z,32.50
2023-04-10T10:13:35.833Z,29.00
2023-04-10T10:18:04.012Z,22.60
2023-04-10T10:22:30.399Z,28.40
2023-04-10T10:27:02.342Z,26.80
2023-04-10T10:31:47.098Z,18.00
2023-04-10T10:36:18.844Z,20.50
2023-04-10T10:41:00.483Z,18.40
2023-04-10T10:45:17.224Z,24.70
2023-04-10T10:49:24.365Z,19.80
2023-04-10T10:53:35.829Z,19.30
2023-04-10T10:58:02.710Z,26.50
2023-04-10T11:02:23.200Z,16.30
2023-04-10T11:06:33.225Z,18.90
2023-04-10T11:11:11.708Z,17.00
2023-04-10T11:15:58.514Z,25.00
2023-04-10T11:20:35.027Z,27.10
2023-04-10T11:24:58.658Z,22.70
2023-04-10T11:29:15.268Z,26.80
2023-04-10T11:33:27.031Z,22.10
2023-04-10T11:37:04.842Z,22.60
2023-04-10T11:41:39.739Z,20.40
2023-04-10T11:46:26.755Z,21.70
2023-04-10T11:50:33.793Z,20.50
2023-04-10T11:54:52.660Z,22.50
2023-04-10T11:59:28.224Z,21.10
2023-04-10T12:03:38.828Z,19.80
2023-04-10T12:08:07.759Z,19.20
2023-04-10T12:12:25.544Z,19.90
2023-04-10T12:16:33.265Z,23.20
2023-04-10T12:20:39.981Z,15.40
2023-04-10T12:25:25.785Z,27.80
2023-04-10T12:29:44.654Z,30.20
2023-04-10T12:40:36.362Z,34.30
2023-04-10T12:44:50.218Z,26.50
2023-04-10T12:48:34.817Z,27.10
2023-04-10T12:52:37.996Z,26.70
2023-04-10T12:56:34.013Z,30.60
2023-04-10T13:00:33.074Z,30.80
2023-04-10T13:03:41.176Z,31.10
2023-04-10T13:07:37.472Z,23.20
2023-04-10T13:11:09.381Z,26.00
2023-04-10T13:14:21.483Z,27.80
2023-04-10T13:17:54.472Z,27.80
2023-04-10T13:21:32.792Z,26.40
2023-04-10T13:24:41.609Z,29.00
2023-04-10T13:28:03.169Z,30.40
2023-04-10T13:31:23.198Z,25.00
2023-04-10T13:35:22.429Z,29.40
2023-04-10T13:38:55.466Z,28.10
2023-04-10T13:42:05.498Z,30.10
2023-04-10T13:45:33.619Z,27.30
2023-04-10T13:49:05.968Z,27.20
2023-04-10T13:52:13.900Z,23.00
2023-04-10T13:55:38.009Z,30.50
2023-04-10T13:59:02.606Z,32.60
2023-04-10T14:02:37.643Z,29.10
2023-04-10T14:05:55.993Z,23.50
2023-04-10T14:12:45.452Z,27.30
2023-04-10T14:16:39.148Z,27.90
2023-04-10T14:19:53.737Z,27.20
2023-04-10T14:23:22.473Z,24.80
2023-04-10T14:27:04.939Z,22.80
2023-04-10T14:30:39.178Z,24.60
2023-04-10T14:33:48.313Z,21.60
2023-04-10T14:37:37.476Z,30.30
2023-04-10T14:40:58.600Z,27.80
2023-04-10T14:44:35.977Z,26.00
2023-04-10T14:47:42.587Z,22.40
2023-04-10T14:51:01.219Z,23.80
2023-04-10T14:54:28.928Z,26.90
2023-04-10T14:58:18.660Z,27.00
2023-04-10T15:01:31.520Z,23.10
2023-04-10T15:08:23.795Z,23.90
2023-04-10T15:11:27.359Z,24.30
2023-04-10T15:14:30.944Z,26.10
2023-04-10T15:17:33.871Z,27.00
2023-04-10T15:20:41.135Z,18.50
2023-04-10T15:23:44.081Z,25.20
2023-04-10T15:26:47.460Z,25.50
2023-04-10T15:29:50.359Z,26.20
2023-04-10T15:32:53.292Z,23.70
2023-04-10T15:35:56.309Z,23.70
2023-04-10T15:39:03.785Z,22.20
2023-04-10T15:42:08.341Z,24.90
2023-04-10T15:45:11.348Z,23.40
2023-04-10T15:48:14.237Z,23.00
2023-04-10T15:51:18.763Z,25.90
2023-04-10T15:54:21.701Z,26.70
2023-04-10T15:57:25.213Z,25.50
2023-04-10T16:00:28.049Z,25.70
2023-04-10T16:03:31.049Z,23.30
2023-04-10T16:06:35.179Z,20.60
2023-04-10T16:09:38.203Z,26.70
2023-04-10T16:12:41.854Z,22.60
2023-04-10T16:15:45.607Z,21.80
2023-04-10T16:18:54.288Z,17.80
2023-04-10T16:21:57.448Z,24.00
2023-04-10T16:25:00.617Z,22.00
2023-04-10T16:28:06.614Z,25.30
2023-04-10T16:31:09.843Z,24.40
2023-04-10T16:34:12.733Z,25.10
2023-04-10T16:37:15.748Z,22.60
2023-04-10T16:40:19.099Z,22.40
2023-04-10T16:43:23.217Z,21.40
2023-04-10T16:46:27.197Z,25.10
2023-04-10T16:49:30.534Z,26.60
2023-04-10T16:52:33.477Z,25.50
2023-04-10T16:55:36.341Z,25.50
2023-04-10T16:58:41.242Z,25.60
2023-04-10T17:01:44.488Z,27.20
2023-04-10T17:04:47.385Z,29.30
2023-04-10T17:07:50.275Z,27.50
2023-04-10T17:10:53.102Z,28.10
2023-04-10T17:13:55.910Z,27.30
2023-04-10T17:16:58.725Z,28.30
2023-04-10T17:20:01.984Z,27.30
2023-04-10T17:23:04.816Z,26.60
2023-04-10T17:26:13.018Z,27.00
2023-04-10T17:29:15.994Z,26.80
2023-04-10T17:32:19.202Z,26.60
2023-04-10T17:35:22.272Z,27.50
2023-04-10T17:38:25.888Z,27.50
2023-04-10T17:41:29.020Z,25.60
2023-04-10T17:44:32.374Z,25.70
2023-04-10T17:47:36.122Z,23.80
2023-04-10T17:50:39.362Z,25.80
2023-04-10T17:53:42.620Z,24.70
2023-04-10T17:56:45.451Z,24.80
2023-04-10T17:59:48.851Z,24.20
2023-04-10T18:02:58.047Z,25.90
2023-04-10T18:06:01.190Z,25.10
2023-04-10T18:09:04.530Z,20.80
2023-04-10T18:12:07.680Z,47.50
2023-04-10T18:15:11.017Z,28.00
2023-04-10T18:18:14.311Z,28.80
2023-04-10T18:21:19.015Z,30.00
2023-04-10T18:24:22.479Z,22.80
2023-04-10T18:27:25.549Z,24.10
2023-04-10T18:30:28.635Z,27.50
2023-04-10T18:33:31.806Z,20.90
2023-04-10T18:36:35.292Z,28.10
2023-04-10T18:39:38.426Z,24.80
2023-04-10T18:42:41.521Z,28.90
2023-04-10T18:45:44.737Z,28.50
2023-04-10T18:48:50.426Z,27.30
2023-04-10T18:51:53.887Z,43.20
2023-04-10T18:54:57.105Z,36.40
2023-04-10T18:58:00.153Z,36.40
2023-04-10T19:01:03.605Z,46.00
2023-04-10T19:04:06.962Z,58.30
2023-04-10T19:07:10.247Z,56.10
2023-04-10T19:10:13.276Z,55.20
2023-04-10T19:13:16.248Z,54.50
2023-04-10T19:16:20.565Z,43.80
2023-04-10T19:19:23.940Z,52.40
2023-04-10T19:22:26.865Z,48.90
2023-04-10T19:25:29.795Z,45.50
2023-04-10T19:28:34.712Z,41.00
2023-04-10T19:31:37.588Z,43.30
2023-04-10T19:34:40.524Z,40.40
2023-04-10T19:37:47.768Z,52.40
2023-04-10T19:40:58.317Z,45.10
2023-04-10T19:44:01.299Z,43.40
2023-04-10T19:47:04.512Z,44.60
2023-04-10T19:50:08.249Z,45.90
2023-04-10T19:53:13.022Z,52.80
2023-04-10T19:56:17.039Z,49.20
2023-04-10T19:59:23.005Z,45.20
2023-04-10T20:02:26.109Z,44.10
2023-04-10T20:05:29.415Z,35.80
2023-04-10T20:08:32.381Z,42.60
2023-04-10T20:11:35.242Z,45.80
2023-04-10T20:14:38.567Z,43.10
2023-04-10T20:17:41.464Z,41.10
2023-04-10T20:20:44.828Z,33.40
2023-04-10T20:23:47.859Z,43.10
2023-04-10T20:26:53.317Z,29.80
2023-04-10T20:29:56.211Z,21.40
2023-04-10T20:32:59.369Z,30.90
2023-04-10T20:36:02.590Z,30.50
2023-04-10T20:39:05.565Z,26.30
2023-04-10T20:42:08.393Z,33.30
2023-04-10T20:45:11.832Z,28.20
2023-04-10T20:48:14.669Z,29.20
2023-04-10T20:51:17.498Z,32.80
2023-04-10T20:54:23.332Z,30.80
2023-04-10T20:57:26.162Z,37.10
2023-04-10T21:00:31.079Z,27.70
2023-04-10T21:03:36.044Z,34.90
2023-04-10T21:06:41.658Z,30.20
2023-04-10T21:09:44.634Z,21.80
2023-04-10T21:12:47.473Z,20.40
2023-04-10T21:15:52.348Z,25.70
2023-04-10T21:18:55.473Z,25.80
2023-04-10T21:21:58.739Z,25.20
2023-04-10T21:25:01.554Z,23.50
2023-04-10T21:28:04.482Z,21.20
2023-04-10T21:31:10.833Z,20.70
2023-04-10T21:34:15.247Z,18.10
2023-04-10T21:37:18.064Z,16.80
2023-04-10T21:40:21.058Z,25.60
2023-04-10T21:43:23.912Z,29.70
2023-04-10T21:46:26.843Z,26.40
2023-04-10T21:49:29.761Z,28.70
2023-04-10T21:52:32.653Z,22.70
2023-04-10T21:55:35.573Z,29.00
2023-04-10T21:58:38.497Z,23.30
2023-04-10T22:01:41.987Z,26.70
2023-04-10T22:04:53.810Z,22.90
2023-04-10T22:07:57.813Z,27.30
2023-04-10T22:11:00.662Z,26.00
2023-04-10T22:14:16.073Z,21.10
2023-04-10T22:17:20.317Z,23.60
2023-04-10T22:20:23.181Z,21.10
2023-04-10T22:23:26.288Z,24.70
2023-04-10T22:26:29.189Z,23.80
2023-04-10T22:29:34.005Z,25.70
2023-04-10T22:32:37.093Z,26.40
2023-04-10T22:35:40.163Z,27.30
2023-04-10T22:38:43.176Z,28.30
2023-04-10T22:41:46.128Z,29.70
2023-04-10T22:44:49.053Z,31.40
2023-04-10T22:47:51.855Z,29.20
2023-04-10T22:50:54.727Z,26.80
2023-04-10T22:53:57.727Z,22.50
2023-04-10T22:57:00.904Z,25.50
2023-04-10T23:00:04.449Z,26.60
2023-04-10T23:03:07.326Z,24.80
2023-04-10T23:06:10.275Z,24.30
2023-04-10T23:09:13.229Z,26.40
2023-04-10T23:12:16.091Z,15.50
2023-04-10T23:15:19.054Z,17.40
2023-04-10T23:18:22.408Z,18.60
2023-04-10T23:21:25.370Z,16.00
2023-04-10T23:24:28.341Z,18.40
2023-04-10T23:27:31.251Z,14.00
2023-04-10T23:30:35.746Z,14.20
2023-04-10T23:33:38.628Z,12.80
2023-04-10T23:36:42.062Z,15.70
2023-04-10T23:39:44.883Z,16.70
2023-04-10T23:42:47.748Z,11.90
2023-04-10T23:45:50.601Z,13.60
2023-04-10T23:48:54.997Z,13.30
2023-04-10T23:51:57.984Z,15.20
2023-04-10T23:55:00.880Z,11.00
2023-04-10T23:58:03.747Z,10.30
